Time;durP1;ratioP1;P1;durP2;ratioP2;P2;SDS_P1;SDS_P2;PMS_P1;PMS_P2;Temp;Humidity;BMP_temperature;BMP_pressure;BME280_temperature;BME280_humidity;BME280_pressure;Samples;Min_cycle;Max_cycle;Signal;HPM_P1;HPM_P2
2023/12/09 00:02:19;;;;;;;6.10;2.17;;;8.00;99.90;;;;;;4955564;29;20046;-82
2023/12/09 00:04:46;;;;;;;7.03;2.42;;;8.00;99.90;;;;;;4916107;29;20047;-82
2023/12/09 00:07:13;;;;;;;6.13;2.75;;;8.00;99.90;;;;;;4939466;29;20179;-82
2023/12/09 00:09:40;;;;;;;5.13;2.20;;;8.00;99.90;;;;;;4939467;29;20050;-83
2023/12/09 00:12:09;;;;;;;6.85;2.50;;;8.00;99.90;;;;;;4954785;28;20077;-83
2023/12/09 00:14:36;;;;;;;8.80;2.88;;;8.00;99.90;;;;;;4939655;29;20050;-82
2023/12/09 00:17:03;;;;;;;8.60;2.65;;;8.00;99.90;;;;;;4939409;29;20039;-82
2023/12/09 00:19:30;;;;;;;6.65;2.78;;;8.00;99.90;;;;;;4971386;28;20051;-83
2023/12/09 00:21:59;;;;;;;7.78;2.60;;;8.00;99.90;;;;;;4955232;29;20043;-82
2023/12/09 00:24:30;;;;;;;7.13;3.53;;;8.00;99.90;;;;;;4939526;29;20094;-81
2023/12/09 00:26:57;;;;;;;4.93;2.25;;;8.00;99.90;;;;;;4939821;29;20051;-82
2023/12/09 00:29:24;;;;;;;6.57;2.85;;;8.00;99.90;;;;;;4938941;29;20048;-82
2023/12/09 00:31:51;;;;;;;10.23;2.80;;;8.00;99.90;;;;;;4939489;29;20057;-82
2023/12/09 00:34:20;;;;;;;9.07;2.50;;;8.00;99.90;;;;;;4939452;28;20079;-82
2023/12/09 00:36:47;;;;;;;7.22;2.53;;;8.00;99.90;;;;;;4939546;29;20035;-82
2023/12/09 00:39:14;;;;;;;7.55;2.55;;;8.00;99.90;;;;;;4939094;29;20122;-82
2023/12/09 00:41:42;;;;;;;8.10;2.78;;;8.00;99.90;;;;;;4938830;29;20047;-81
2023/12/09 00:44:09;;;;;;;7.20;2.97;;;8.10;99.90;;;;;;4938693;29;20046;-82
2023/12/09 00:46:36;;;;;;;9.45;2.83;;;8.10;99.90;;;;;;4923243;29;20043;-82
2023/12/09 00:49:03;;;;;;;6.15;2.35;;;8.10;99.90;;;;;;4954625;29;20098;-82
2023/12/09 00:51:30;;;;;;;4.47;1.75;;;8.10;99.90;;;;;;4954594;28;20061;-81
2023/12/09 00:53:57;;;;;;;8.30;2.75;;;8.10;99.90;;;;;;4936243;28;20051;-81
2023/12/09 00:56:24;;;;;;;5.15;2.10;;;8.10;99.90;;;;;;4951770;29;20051;-81
2023/12/09 00:59:01;;;;;;;9.65;3.00;;;8.10;99.90;;;;;;4953281;29;20083;-82
2023/12/09 01:01:28;;;;;;;9.80;3.50;;;8.10;99.90;;;;;;4954510;29;20403;-82
2023/12/09 01:03:56;;;;;;;9.98;2.88;;;8.10;99.90;;;;;;4938787;29;20053;-82
2023/12/09 01:06:23;;;;;;;8.13;2.80;;;8.10;99.90;;;;;;4938781;29;20047;-82
2023/12/09 01:08:50;;;;;;;5.95;2.63;;;8.10;99.90;;;;;;4922799;29;20043;-81
2023/12/09 01:11:17;;;;;;;6.15;1.90;;;8.10;99.90;;;;;;4970586;28;20043;-82
2023/12/09 01:13:45;;;;;;;8.75;2.15;;;8.10;99.90;;;;;;4954343;28;20146;-81
2023/12/09 01:16:14;;;;;;;9.45;2.95;;;8.10;99.90;;;;;;4937952;29;20138;-82
2023/12/09 01:18:44;;;;;;;8.48;3.05;;;8.00;99.90;;;;;;4938224;29;20085;-81
2023/12/09 01:21:12;;;;;;;7.30;2.17;;;8.00;99.90;;;;;;4954363;29;20061;-82
2023/12/09 01:23:39;;;;;;;10.63;2.88;;;8.00;99.90;;;;;;4922294;29;20067;-82
2023/12/09 01:26:07;;;;;;;7.90;2.88;;;8.00;99.90;;;;;;4938398;29;20082;-81
2023/12/09 01:28:34;;;;;;;9.32;2.50;;;7.90;99.90;;;;;;4938558;29;20047;-80
2023/12/09 01:31:05;;;;;;;6.10;2.00;;;7.90;99.90;;;;;;4938810;29;20496;-81
2023/12/09 01:33:37;;;;;;;7.10;2.50;;;7.90;99.90;;;;;;4970468;28;20936;-82
2023/12/09 01:36:09;;;;;;;5.95;2.03;;;7.90;99.90;;;;;;4938755;29;20043;-82
2023/12/09 01:38:39;;;;;;;6.82;2.00;;;7.90;99.90;;;;;;4938030;29;20055;-81
2023/12/09 01:41:06;;;;;;;5.00;2.05;;;7.90;99.90;;;;;;4941951;29;20476;-82
2023/12/09 01:43:34;;;;;;;6.53;2.42;;;7.90;99.90;;;;;;4972362;28;20040;-82
2023/12/09 01:46:11;;;;;;;5.22;2.10;;;7.80;99.90;;;;;;4917769;29;20047;-81
2023/12/09 01:48:38;;;;;;;6.85;1.92;;;7.80;99.90;;;;;;4960638;29;20039;-81
2023/12/09 01:51:07;;;;;;;7.80;2.03;;;7.80;99.90;;;;;;4938650;29;20081;-81
2023/12/09 01:53:36;;;;;;;5.68;2.42;;;7.80;99.90;;;;;;4970735;28;20570;-82
2023/12/09 01:56:05;;;;;;;6.88;2.30;;;7.80;99.90;;;;;;4938136;29;20047;-82
2023/12/09 01:58:33;;;;;;;5.07;1.95;;;7.70;99.90;;;;;;4954514;29;20058;-83
2023/12/09 02:01:01;;;;;;;7.38;2.78;;;7.80;99.90;;;;;;4954194;29;20039;-82
2023/12/09 02:03:32;;;;;;;10.32;2.95;;;7.80;99.90;;;;;;4938419;29;20086;-83
2023/12/09 02:06:00;;;;;;;7.15;3.20;;;7.80;99.90;;;;;;4954201;29;20051;-82
2023/12/09 02:08:27;;;;;;;9.25;4.40;;;7.80;99.90;;;;;;4953849;29;20058;-82
2023/12/09 02:11:11;;;;;;;8.23;3.38;;;7.80;99.90;;;;;;4953862;28;20054;-81
2023/12/09 02:14:21;;;;;;;9.02;2.83;;;7.80;99.90;;;;;;4937711;29;20043;-82
2023/12/09 02:17:11;;;;;;;9.75;3.65;;;7.80;99.90;;;;;;4862734;29;20045;-82
2023/12/09 02:19:39;;;;;;;10.82;3.28;;;7.80;99.90;;;;;;4861381;29;20045;-82
2023/12/09 02:22:08;;;;;;;9.15;2.83;;;7.80;99.90;;;;;;4900119;29;20588;-82
2023/12/09 02:24:36;;;;;;;7.57;2.85;;;7.80;99.90;;;;;;4921858;29;20047;-82
2023/12/09 02:27:09;;;;;;;6.20;2.88;;;7.80;99.90;;;;;;4918547;29;20104;-82
2023/12/09 02:30:09;;;;;;;7.38;2.40;;;7.80;99.90;;;;;;4934734;28;20052;-82
2023/12/09 02:32:38;;;;;;;6.80;2.50;;;7.80;99.90;;;;;;4926122;29;20047;-83
2023/12/09 02:35:08;;;;;;;11.00;3.60;;;7.80;99.90;;;;;;4920483;29;20099;-82
2023/12/09 02:37:36;;;;;;;10.05;3.30;;;7.80;99.90;;;;;;4922647;29;20138;-82
2023/12/09 02:40:06;;;;;;;9.55;4.03;;;7.80;99.90;;;;;;4922324;29;20055;-82
2023/12/09 02:42:33;;;;;;;9.13;3.38;;;7.80;99.90;;;;;;4922040;29;20071;-83
2023/12/09 02:45:00;;;;;;;10.48;3.63;;;7.80;99.90;;;;;;4937968;29;20044;-81
2023/12/09 02:47:27;;;;;;;9.00;3.20;;;7.70;99.90;;;;;;4906433;29;20090;-83
2023/12/09 02:49:55;;;;;;;6.88;2.55;;;7.70;99.90;;;;;;4922005;29;20052;-83
2023/12/09 02:52:22;;;;;;;7.22;2.92;;;7.70;99.90;;;;;;4921980;29;20055;-81
2023/12/09 02:54:49;;;;;;;4.10;1.80;;;7.60;99.90;;;;;;4937962;29;20051;-82
2023/12/09 02:57:16;;;;;;;5.75;2.75;;;7.60;99.90;;;;;;4937888;29;20055;-82
2023/12/09 02:59:43;;;;;;;6.88;2.60;;;7.50;99.90;;;;;;4922171;29;20134;-83
2023/12/09 03:02:10;;;;;;;6.78;2.50;;;7.40;99.90;;;;;;4921483;29;20039;-81
2023/12/09 03:04:37;;;;;;;6.18;1.83;;;7.40;99.90;;;;;;4921588;29;20055;-81
2023/12/09 03:07:06;;;;;;;9.20;2.05;;;7.40;99.90;;;;;;4921456;29;20048;-81
2023/12/09 03:09:34;;;;;;;7.93;2.80;;;7.40;99.90;;;;;;4937538;29;20044;-81
2023/12/09 03:12:01;;;;;;;11.60;4.57;;;7.40;99.90;;;;;;4921830;29;20061;-81
2023/12/09 03:14:28;;;;;;;13.68;4.05;;;7.40;99.90;;;;;;4906219;29;20099;-83
2023/12/09 03:16:56;;;;;;;9.93;3.63;;;7.30;99.90;;;;;;4903737;29;20059;-82
2023/12/09 03:19:23;;;;;;;13.10;4.20;;;7.30;99.90;;;;;;4946731;29;20055;-83
2023/12/09 03:21:50;;;;;;;14.80;4.95;;;7.30;99.90;;;;;;4940529;29;20396;-82
2023/12/09 03:24:17;;;;;;;12.95;4.50;;;7.20;99.90;;;;;;4956527;28;20047;-83
2023/12/09 03:26:51;;;;;;;9.38;4.38;;;7.20;99.90;;;;;;4924757;29;20145;-82
2023/12/09 03:29:19;;;;;;;16.23;6.68;;;7.20;99.90;;;;;;4940625;29;20143;-83
2023/12/09 03:31:47;;;;;;;14.15;5.82;;;7.20;99.90;;;;;;4956169;29;20137;-84
2023/12/09 03:34:15;;;;;;;12.57;5.50;;;7.20;99.90;;;;;;4956138;29;20054;-83
2023/12/09 03:36:48;;;;;;;15.55;6.63;;;7.20;99.90;;;;;;4922689;29;20055;-83
2023/12/09 03:39:18;;;;;;;10.40;4.35;;;7.20;99.90;;;;;;4968505;28;20459;-83
2023/12/09 03:41:45;;;;;;;14.88;5.50;;;7.20;99.90;;;;;;4939861;29;20054;-83
2023/12/09 03:44:12;;;;;;;11.98;5.40;;;7.20;99.90;;;;;;4956133;28;20040;-83
2023/12/09 03:46:40;;;;;;;9.93;4.22;;;7.20;99.90;;;;;;4938934;29;20126;-82
2023/12/09 03:49:07;;;;;;;11.15;3.70;;;7.30;99.90;;;;;;4972000;28;20067;-83
2023/12/09 03:51:34;;;;;;;7.95;3.42;;;7.30;99.90;;;;;;4956182;28;20051;-82
2023/12/09 03:54:01;;;;;;;10.95;3.53;;;7.30;99.90;;;;;;4939747;29;20511;-83
2023/12/09 03:56:31;;;;;;;7.22;2.88;;;7.30;99.90;;;;;;4939869;29;20550;-83
2023/12/09 03:59:00;;;;;;;6.80;2.55;;;7.30;99.90;;;;;;4940002;29;20436;-83
2023/12/09 04:01:27;;;;;;;9.95;3.42;;;7.20;99.90;;;;;;4924108;29;20047;-82
2023/12/09 04:03:54;;;;;;;7.03;2.65;;;7.20;99.90;;;;;;4924321;29;20110;-83
2023/12/09 04:06:24;;;;;;;11.18;3.22;;;7.20;99.90;;;;;;4955611;29;20047;-83
2023/12/09 04:08:51;;;;;;;13.70;3.88;;;7.20;99.90;;;;;;4939941;29;20504;-83
2023/12/09 04:11:18;;;;;;;15.38;3.63;;;7.10;99.90;;;;;;4955657;29;20031;-83
2023/12/09 04:13:46;;;;;;;9.27;2.85;;;7.10;99.90;;;;;;4939474;29;20495;-83
2023/12/09 04:16:13;;;;;;;6.95;2.75;;;7.10;99.90;;;;;;4939464;29;20055;-82
2023/12/09 04:18:40;;;;;;;5.95;2.40;;;7.10;99.90;;;;;;4923594;29;20048;-82
2023/12/09 04:21:07;;;;;;;10.38;3.65;;;7.10;99.90;;;;;;4939296;29;20050;-83
2023/12/09 04:23:34;;;;;;;11.75;3.22;;;7.20;99.90;;;;;;4939333;29;20083;-83
2023/12/09 04:26:04;;;;;;;10.32;2.97;;;7.20;99.90;;;;;;4923925;29;20083;-82
2023/12/09 04:28:31;;;;;;;10.48;2.80;;;7.10;99.90;;;;;;4955180;29;20132;-83
2023/12/09 04:30:58;;;;;;;9.88;3.03;;;7.20;99.90;;;;;;4954958;29;20110;-82
2023/12/09 04:33:25;;;;;;;12.52;3.78;;;7.10;99.90;;;;;;4955190;29;20492;-83
2023/12/09 04:35:53;;;;;;;5.28;2.00;;;7.10;99.90;;;;;;4971261;28;20051;-83
2023/12/09 04:38:20;;;;;;;8.52;2.03;;;7.00;99.90;;;;;;4971107;28;20051;-83
2023/12/09 04:40:47;;;;;;;5.85;2.00;;;7.00;99.90;;;;;;4923550;29;20058;-83
2023/12/09 04:43:14;;;;;;;4.85;1.60;;;6.90;99.90;;;;;;4938966;29;20047;-83
2023/12/09 04:45:41;;;;;;;6.50;2.08;;;6.90;99.90;;;;;;4938996;29;20051;-83
2023/12/09 04:48:08;;;;;;;7.00;1.60;;;6.80;99.90;;;;;;4923316;29;20050;-83
2023/12/09 04:50:35;;;;;;;5.43;1.42;;;6.80;99.90;;;;;;4938821;29;20106;-82
2023/12/09 04:53:02;;;;;;;7.15;2.35;;;6.70;99.90;;;;;;4923072;29;20055;-82
2023/12/09 04:55:29;;;;;;;4.45;1.52;;;6.70;99.90;;;;;;4938983;29;20043;-82
2023/12/09 04:57:57;;;;;;;8.95;1.52;;;6.60;99.90;;;;;;4938963;29;20071;-81
2023/12/09 05:00:24;;;;;;;5.97;1.48;;;6.60;99.90;;;;;;4938930;29;20051;-82
2023/12/09 05:02:51;;;;;;;5.63;1.52;;;6.60;99.90;;;;;;4938963;28;20102;-82
2023/12/09 05:05:18;;;;;;;6.32;2.25;;;6.60;99.90;;;;;;4954953;28;20047;-82
2023/12/09 05:07:49;;;;;;;4.15;1.33;;;6.60;99.90;;;;;;4923117;29;20396;-81
2023/12/09 05:10:16;;;;;;;2.80;1.02;;;6.60;99.90;;;;;;4924065;29;20058;-83
2023/12/09 05:12:43;;;;;;;4.55;1.38;;;6.50;99.90;;;;;;4925537;29;20058;-82
2023/12/09 05:15:10;;;;;;;6.57;1.33;;;6.50;99.90;;;;;;4941170;29;20047;-83
2023/12/09 05:17:38;;;;;;;5.68;1.48;;;6.50;99.90;;;;;;4937238;29;20384;-83
2023/12/09 05:20:06;;;;;;;4.93;1.30;;;6.40;99.90;;;;;;4939456;29;20078;-83
2023/12/09 05:22:33;;;;;;;6.10;1.77;;;6.30;99.90;;;;;;4938743;29;20459;-82
2023/12/09 05:25:00;;;;;;;6.57;1.90;;;6.30;99.90;;;;;;4938778;29;20070;-83
2023/12/09 05:27:27;;;;;;;4.28;1.27;;;6.30;99.90;;;;;;4938546;29;20591;-83
2023/12/09 05:29:54;;;;;;;4.55;1.58;;;6.30;99.90;;;;;;4943872;29;20048;-83
2023/12/09 05:32:22;;;;;;;5.25;1.45;;;6.20;99.90;;;;;;4942748;29;20055;-82
2023/12/09 05:34:49;;;;;;;5.93;1.35;;;6.20;99.90;;;;;;4938600;29;20405;-84
2023/12/09 05:37:16;;;;;;;4.85;1.52;;;6.20;99.90;;;;;;4938337;29;20119;-83
2023/12/09 05:39:44;;;;;;;5.82;1.88;;;6.20;99.90;;;;;;4938378;29;20047;-83
2023/12/09 05:42:14;;;;;;;4.32;1.25;;;6.20;99.90;;;;;;4927468;29;20050;-82
2023/12/09 05:44:48;;;;;;;4.53;1.45;;;6.20;99.90;;;;;;4953096;29;20130;-82
2023/12/09 05:47:18;;;;;;;4.38;1.42;;;6.10;99.90;;;;;;4938191;29;20067;-83
2023/12/09 05:49:46;;;;;;;5.57;1.70;;;6.10;99.90;;;;;;4954369;28;20122;-81
2023/12/09 05:52:13;;;;;;;4.32;1.60;;;6.10;99.90;;;;;;4938189;29;20054;-83
2023/12/09 05:54:40;;;;;;;4.15;1.33;;;6.10;99.90;;;;;;4938230;29;20063;-81
2023/12/09 05:57:07;;;;;;;4.18;1.15;;;6.00;99.90;;;;;;4937923;29;20071;-81
2023/12/09 05:59:34;;;;;;;2.58;1.00;;;6.00;99.90;;;;;;4938096;29;20087;-82
2023/12/09 06:02:03;;;;;;;2.33;0.82;;;6.00;99.90;;;;;;4938241;28;20050;-83
2023/12/09 06:04:30;;;;;;;5.82;1.90;;;6.00;99.90;;;;;;4953337;29;20111;-83
2023/12/09 06:06:57;;;;;;;4.72;1.35;;;6.00;99.90;;;;;;4937983;28;20048;-82
2023/12/09 06:09:24;;;;;;;4.75;1.35;;;6.00;99.90;;;;;;4938918;29;20051;-82
2023/12/09 06:11:51;;;;;;;4.13;1.30;;;5.90;99.90;;;;;;4926035;29;20058;-82
2023/12/09 06:14:18;;;;;;;3.97;1.00;;;5.90;99.90;;;;;;4941801;29;20138;-83
2023/12/09 06:16:46;;;;;;;4.28;1.45;;;5.90;99.90;;;;;;4941545;29;20054;-82
2023/12/09 06:19:13;;;;;;;5.30;0.90;;;5.80;99.90;;;;;;4942885;29;20134;-82
2023/12/09 06:21:40;;;;;;;5.97;1.25;;;5.90;99.90;;;;;;4950682;29;20043;-82
2023/12/09 06:24:07;;;;;;;11.18;1.98;;;5.80;99.90;;;;;;4957284;29;20057;-83
2023/12/09 06:26:42;;;;;;;7.72;2.38;;;5.90;99.90;;;;;;4931425;29;20043;-82
2023/12/09 06:29:12;;;;;;;5.47;1.38;;;6.00;99.90;;;;;;4973424;28;20051;-82
2023/12/09 06:31:39;;;;;;;7.93;2.13;;;6.00;99.90;;;;;;4941348;29;20051;-82
2023/12/09 06:34:06;;;;;;;4.30;1.20;;;6.00;99.90;;;;;;4957019;28;20058;-82
2023/12/09 06:36:35;;;;;;;4.82;1.65;;;6.00;99.90;;;;;;4957188;28;20047;-83
2023/12/09 06:39:03;;;;;;;6.65;2.20;;;6.00;99.90;;;;;;4941115;29;20063;-83
2023/12/09 06:41:31;;;;;;;5.15;1.30;;;6.10;99.90;;;;;;4941330;29;20051;-82
2023/12/09 06:43:58;;;;;;;5.10;1.38;;;6.10;99.90;;;;;;4941448;29;20058;-82
2023/12/09 06:46:25;;;;;;;7.95;1.40;;;6.10;99.90;;;;;;4941553;29;20070;-82
2023/12/09 06:48:52;;;;;;;6.38;1.42;;;6.20;99.90;;;;;;4929280;29;20055;-81
2023/12/09 06:51:20;;;;;;;5.65;1.35;;;6.20;99.90;;;;;;4941682;29;20094;-82
2023/12/09 06:53:47;;;;;;;6.57;1.40;;;6.20;99.90;;;;;;4941369;28;20398;-83
2023/12/09 06:56:21;;;;;;;5.60;1.67;;;6.20;99.90;;;;;;4941279;29;20063;-82
2023/12/09 06:58:48;;;;;;;6.20;2.20;;;6.30;99.90;;;;;;4955828;29;20051;-82
2023/12/09 07:01:21;;;;;;;6.85;1.77;;;6.40;99.90;;;;;;4940978;29;20503;-83
2023/12/09 07:03:49;;;;;;;5.80;1.90;;;6.40;99.90;;;;;;4957053;29;20377;-82
2023/12/09 07:06:22;;;;;;;8.23;2.08;;;6.40;99.90;;;;;;4940869;29;20460;-84
2023/12/09 07:08:50;;;;;;;6.55;1.58;;;6.50;99.90;;;;;;4938625;29;20057;-83
2023/12/09 07:11:17;;;;;;;5.53;1.20;;;6.50;99.90;;;;;;4949507;29;20047;-82
2023/12/09 07:13:45;;;;;;;8.52;1.58;;;6.50;99.90;;;;;;4937705;29;20451;-82
2023/12/09 07:16:13;;;;;;;4.15;1.20;;;6.50;99.90;;;;;;4961219;28;20595;-81
2023/12/09 07:18:46;;;;;;;3.90;1.25;;;6.40;99.90;;;;;;4956287;29;20463;-81
2023/12/09 07:21:15;;;;;;;4.65;1.77;;;6.50;99.90;;;;;;4971243;28;20067;-82
2023/12/09 07:23:43;;;;;;;10.27;1.20;;;6.50;99.90;;;;;;4940251;29;20043;-81
2023/12/09 07:26:12;;;;;;;3.10;0.70;;;6.50;99.90;;;;;;4940205;29;20142;-82
2023/12/09 07:28:39;;;;;;;4.82;1.45;;;6.50;99.90;;;;;;4940763;29;20484;-82
2023/12/09 07:31:09;;;;;;;5.03;1.27;;;6.50;99.90;;;;;;4924570;29;20043;-82
2023/12/09 07:33:36;;;;;;;4.07;1.75;;;6.50;99.90;;;;;;4956127;29;20147;-82
2023/12/09 07:36:04;;;;;;;3.90;1.23;;;6.40;99.90;;;;;;4939984;29;20082;-81
2023/12/09 07:38:31;;;;;;;5.63;1.42;;;6.50;99.90;;;;;;4940170;29;20053;-82
2023/12/09 07:40:58;;;;;;;9.02;1.60;;;6.40;99.90;;;;;;4939979;29;20051;-82
2023/12/09 07:43:26;;;;;;;4.50;1.13;;;6.40;99.90;;;;;;4928311;29;20043;-82
2023/12/09 07:45:53;;;;;;;3.83;1.23;;;6.40;99.90;;;;;;4955798;28;20078;-83
2023/12/09 07:48:20;;;;;;;4.00;1.00;;;6.30;99.90;;;;;;4955975;28;20126;-83
2023/12/09 07:50:48;;;;;;;6.03;1.45;;;6.30;99.90;;;;;;4940122;29;20050;-83
2023/12/09 07:53:17;;;;;;;6.45;1.77;;;6.30;99.90;;;;;;4940013;29;20174;-83
2023/12/09 07:55:44;;;;;;;5.30;1.60;;;6.30;99.90;;;;;;4940486;28;20047;-82
2023/12/09 07:58:12;;;;;;;3.47;1.10;;;6.40;99.90;;;;;;4939771;29;20055;-82
2023/12/09 08:00:39;;;;;;;3.33;1.25;;;6.30;99.90;;;;;;4939590;29;20138;-82
2023/12/09 08:03:06;;;;;;;5.18;1.33;;;6.40;99.90;;;;;;4939986;29;20197;-82
2023/12/09 08:05:34;;;;;;;6.93;1.35;;;6.40;99.90;;;;;;4955508;28;20058;-83
2023/12/09 08:08:02;;;;;;;4.90;1.20;;;6.50;99.90;;;;;;4939780;29;20047;-82
2023/12/09 08:10:29;;;;;;;4.07;0.95;;;6.50;99.90;;;;;;4955547;28;20455;-82
2023/12/09 08:12:56;;;;;;;6.15;1.40;;;6.50;99.90;;;;;;4955166;28;20043;-82
2023/12/09 08:15:23;;;;;;;5.97;1.30;;;6.50;99.90;;;;;;4939012;29;20053;-82
2023/12/09 08:17:50;;;;;;;5.32;1.00;;;6.50;99.90;;;;;;4939113;28;20504;-81
2023/12/09 08:20:20;;;;;;;3.53;0.70;;;6.60;99.90;;;;;;4923967;29;20111;-83
2023/12/09 08:22:47;;;;;;;2.88;0.73;;;6.60;99.90;;;;;;4939760;29;20049;-80
2023/12/09 08:25:14;;;;;;;4.90;1.33;;;6.60;99.90;;;;;;4939295;29;20043;-83
2023/12/09 08:27:44;;;;;;;11.43;1.35;;;6.60;99.90;;;;;;4924049;29;20043;-82
2023/12/09 08:30:13;;;;;;;4.28;0.80;;;6.70;99.90;;;;;;4939072;29;20106;-83
2023/12/09 08:32:42;;;;;;;5.90;1.20;;;6.70;99.90;;;;;;4938908;29;20571;-83
2023/12/09 08:35:10;;;;;;;3.63;0.90;;;6.70;99.90;;;;;;4923487;29;20102;-82
2023/12/09 08:37:38;;;;;;;4.93;1.25;;;6.70;99.90;;;;;;4939522;29;20042;-82
2023/12/09 08:40:11;;;;;;;5.63;1.30;;;6.80;99.90;;;;;;4939182;29;20587;-82
2023/12/09 08:42:40;;;;;;;4.85;1.05;;;6.90;99.90;;;;;;4955739;28;20043;-83
2023/12/09 08:45:10;;;;;;;3.15;0.75;;;6.90;99.90;;;;;;4941534;29;20102;-83
2023/12/09 08:47:37;;;;;;;3.65;0.75;;;6.90;99.90;;;;;;4962464;29;20035;-83
2023/12/09 08:50:09;;;;;;;3.10;0.90;;;6.90;99.90;;;;;;4956360;29;20488;-82
2023/12/09 08:52:54;;;;;;;6.70;1.05;;;7.00;99.90;;;;;;4941508;29;20106;-82
2023/12/09 08:55:23;;;;;;;3.17;0.93;;;7.00;99.90;;;;;;4939077;29;20051;-83
2023/12/09 08:57:51;;;;;;;3.70;0.68;;;7.00;99.90;;;;;;4954614;29;20141;-82
2023/12/09 09:00:20;;;;;;;4.70;1.10;;;7.10;99.90;;;;;;4939256;29;20146;-82
2023/12/09 09:02:49;;;;;;;4.57;1.00;;;7.20;99.90;;;;;;4955351;28;20054;-82
2023/12/09 09:05:17;;;;;;;3.65;1.20;;;7.20;99.90;;;;;;4926527;29;20107;-82
2023/12/09 09:07:44;;;;;;;6.72;1.10;;;7.20;99.90;;;;;;4927950;29;20047;-82
2023/12/09 09:10:13;;;;;;;5.78;1.27;;;7.30;99.90;;;;;;4962666;28;20112;-81
2023/12/09 09:12:43;;;;;;;4.40;0.95;;;7.30;99.90;;;;;;4948191;28;20051;-81
2023/12/09 09:15:12;;;;;;;5.78;1.60;;;7.30;99.90;;;;;;4923046;29;20043;-82
2023/12/09 09:17:39;;;;;;;6.30;1.20;;;7.30;99.90;;;;;;4926186;29;20083;-83
2023/12/09 09:20:07;;;;;;;6.60;1.00;;;7.30;99.90;;;;;;4947157;28;20146;-83
2023/12/09 09:22:43;;;;;;;4.40;1.08;;;7.30;99.90;;;;;;4954446;29;20444;-83
2023/12/09 09:25:15;;;;;;;7.60;1.30;;;7.30;99.90;;;;;;4953813;29;20047;-83
2023/12/09 09:27:45;;;;;;;5.80;1.20;;;7.40;99.90;;;;;;4938410;29;20047;-83
2023/12/09 09:30:13;;;;;;;7.80;1.52;;;7.40;99.90;;;;;;4938255;29;20082;-81
2023/12/09 09:32:40;;;;;;;5.53;1.10;;;7.40;99.90;;;;;;4954102;29;20055;-82
2023/12/09 09:35:08;;;;;;;8.45;1.20;;;7.40;99.90;;;;;;4938085;29;20047;-82
2023/12/09 09:37:36;;;;;;;6.20;1.08;;;7.50;99.90;;;;;;4970398;28;20058;-82
2023/12/09 09:40:04;;;;;;;3.88;1.00;;;7.50;99.90;;;;;;4939501;28;20039;-83
2023/12/09 09:42:42;;;;;;;4.28;0.93;;;7.50;99.90;;;;;;4938081;29;20047;-83
2023/12/09 09:45:18;;;;;;;6.38;1.23;;;7.50;99.90;;;;;;4937409;29;20106;-83
2023/12/09 09:47:52;;;;;;;2.17;0.73;;;7.60;99.90;;;;;;4938277;29;20160;-83
2023/12/09 09:50:23;;;;;;;3.72;1.02;;;7.60;99.90;;;;;;4954996;29;20035;-83
2023/12/09 09:52:51;;;;;;;3.85;0.98;;;7.60;99.90;;;;;;4937848;29;20074;-82
2023/12/09 09:55:25;;;;;;;3.03;0.90;;;7.60;99.90;;;;;;4953630;29;20102;-83
2023/12/09 09:57:56;;;;;;;3.65;0.60;;;7.60;99.90;;;;;;4969689;28;20043;-82
2023/12/09 10:00:23;;;;;;;2.58;0.80;;;7.60;99.90;;;;;;4937870;29;20044;-84
2023/12/09 10:02:50;;;;;;;3.42;1.20;;;7.60;99.90;;;;;;4953734;29;20043;-83
2023/12/09 10:05:22;;;;;;;3.00;0.60;;;7.60;99.90;;;;;;4954985;28;20043;-85
2023/12/09 10:07:49;;;;;;;5.63;0.90;;;7.70;99.90;;;;;;4938087;29;20047;-84
2023/12/09 10:10:19;;;;;;;4.22;0.90;;;7.70;99.90;;;;;;4954020;29;20444;-82
2023/12/09 10:12:46;;;;;;;6.53;0.88;;;7.70;99.90;;;;;;4953677;29;20058;-81
2023/12/09 10:15:13;;;;;;;3.70;0.88;;;7.80;99.90;;;;;;4937774;29;20058;-81
2023/12/09 10:17:41;;;;;;;3.55;0.88;;;7.80;99.90;;;;;;4937776;29;20103;-82
2023/12/09 10:20:10;;;;;;;3.25;0.55;;;7.90;99.90;;;;;;4969736;28;20051;-83
2023/12/09 10:22:38;;;;;;;5.78;1.17;;;8.00;99.90;;;;;;4922454;29;20047;-82
2023/12/09 10:25:07;;;;;;;5.18;1.02;;;8.10;99.90;;;;;;4954138;28;20419;-82
2023/12/09 10:27:34;;;;;;;3.13;0.70;;;8.10;99.90;;;;;;4953693;29;20154;-82
2023/12/09 10:30:03;;;;;;;6.43;0.88;;;8.20;99.90;;;;;;4937982;29;20058;-82
2023/12/09 10:32:32;;;;;;;7.95;1.45;;;8.20;99.90;;;;;;4953538;29;20075;-82
2023/12/09 10:35:00;;;;;;;2.20;0.60;;;8.20;99.90;;;;;;4953755;29;20053;-82
2023/12/09 10:37:31;;;;;;;2.22;0.90;;;8.20;99.90;;;;;;4953372;29;20059;-81
2023/12/09 10:40:03;;;;;;;2.97;0.50;;;8.30;99.90;;;;;;4952895;29;20498;-82
2023/12/09 10:42:31;;;;;;;4.32;0.77;;;8.30;99.90;;;;;;4949185;28;20492;-82
2023/12/09 10:45:03;;;;;;;2.25;0.50;;;8.30;99.90;;;;;;4949094;29;20083;-83
2023/12/09 10:47:30;;;;;;;7.93;0.80;;;8.40;99.90;;;;;;4937386;29;20051;-81
2023/12/09 10:49:58;;;;;;;4.03;0.75;;;8.40;99.90;;;;;;4937223;29;20047;-84
2023/12/09 10:52:25;;;;;;;5.35;0.98;;;8.40;99.90;;;;;;4937575;29;20133;-82
2023/12/09 10:54:53;;;;;;;3.55;0.73;;;8.40;99.90;;;;;;4922006;28;20071;-83
2023/12/09 10:57:23;;;;;;;3.90;0.80;;;8.50;99.90;;;;;;4941442;29;20471;-83
2023/12/09 10:59:50;;;;;;;5.05;0.70;;;8.50;99.90;;;;;;4941161;29;20483;-78
2023/12/09 11:02:19;;;;;;;4.28;0.73;;;8.50;99.90;;;;;;4925049;29;20079;-78
2023/12/09 11:04:47;;;;;;;4.60;0.80;;;8.50;99.90;;;;;;4940641;29;20062;-78
2023/12/09 11:07:15;;;;;;;3.53;0.90;;;8.50;99.90;;;;;;4924986;29;20496;-78
2023/12/09 11:09:44;;;;;;;4.28;0.63;;;8.50;99.90;;;;;;4925987;29;20051;-87
2023/12/09 11:12:27;;;;;;;4.00;0.80;;;8.50;99.90;;;;;;4957264;29;20416;-84
2023/12/09 11:15:05;;;;;;;4.03;0.60;;;8.60;99.90;;;;;;4973356;28;20043;-84
2023/12/09 11:17:34;;;;;;;4.45;0.50;;;8.60;99.90;;;;;;4942053;29;20498;-86
2023/12/09 11:20:14;;;;;;;3.20;0.50;;;8.60;99.90;;;;;;4941454;29;20399;-85
2023/12/09 11:22:48;;;;;;;3.05;0.73;;;8.60;99.90;;;;;;4956670;29;20055;-84
2023/12/09 11:25:22;;;;;;;2.85;0.70;;;8.50;99.90;;;;;;4940857;29;20062;-85
2023/12/09 11:27:51;;;;;;;1.77;0.45;;;8.50;99.90;;;;;;4956791;29;20146;-86
2023/12/09 11:30:36;;;;;;;3.88;0.73;;;8.50;99.90;;;;;;4956790;29;20154;-88
2023/12/09 11:33:04;;;;;;;4.47;1.13;;;8.50;99.90;;;;;;4972415;28;20090;-88
2023/12/09 11:35:36;;;;;;;3.30;0.63;;;8.50;99.90;;;;;;4973409;28;20137;-87
2023/12/09 11:38:09;;;;;;;1.45;0.50;;;8.50;99.90;;;;;;4966969;28;20043;-86
2023/12/09 11:40:36;;;;;;;3.17;0.50;;;8.50;99.90;;;;;;4957262;29;20043;-85
2023/12/09 11:43:03;;;;;;;4.03;0.70;;;8.50;99.90;;;;;;4934242;28;20061;-85
2023/12/09 11:45:31;;;;;;;3.10;0.77;;;8.50;99.90;;;;;;4940591;29;20054;-84
2023/12/09 11:48:07;;;;;;;3.58;0.65;;;8.40;99.90;;;;;;4940782;28;20043;-88
2023/12/09 11:50:49;;;;;;;2.05;0.52;;;8.40;99.90;;;;;;4973423;28;20122;-89
2023/12/09 11:53:16;;;;;;;1.52;0.70;;;8.40;99.90;;;;;;4957500;29;20047;-88
2023/12/09 11:55:52;;;;;;;2.30;0.60;;;8.40;99.90;;;;;;4955675;29;20043;-85
2023/12/09 11:58:19;;;;;;;5.22;0.88;;;8.40;99.90;;;;;;4940047;29;20058;-81
2023/12/09 12:00:50;;;;;;;3.58;0.70;;;8.40;99.90;;;;;;4940222;29;20039;-88
2023/12/09 12:03:20;;;;;;;2.20;0.80;;;8.40;99.90;;;;;;4957160;29;20055;-90
2023/12/09 12:05:48;;;;;;;1.52;0.60;;;8.40;99.90;;;;;;4956991;29;20047;-88
2023/12/09 12:08:16;;;;;;;2.97;0.60;;;8.50;99.90;;;;;;4960470;28;20055;-87
2023/12/09 12:10:52;;;;;;;2.42;0.93;;;8.50;99.90;;;;;;4983791;28;20051;-89
2023/12/09 12:13:19;;;;;;;2.40;0.63;;;8.50;99.90;;;;;;4963149;29;20047;-86
2023/12/09 12:16:07;;;;;;;4.45;1.27;;;8.50;99.90;;;;;;4959725;28;20061;-87
2023/12/09 12:18:41;;;;;;;3.65;0.70;;;8.50;99.90;;;;;;4974189;28;20070;-87
2023/12/09 12:21:31;;;;;;;3.08;0.77;;;8.50;99.90;;;;;;4943453;29;20139;-87
2023/12/09 12:24:19;;;;;;;2.22;0.80;;;8.50;99.90;;;;;;4942634;29;20138;-88
2023/12/09 12:26:55;;;;;;;3.05;0.50;;;8.50;99.90;;;;;;4970285;28;20043;-79
2023/12/09 12:29:22;;;;;;;4.90;0.75;;;8.50;99.90;;;;;;4971184;28;20052;-80
2023/12/09 12:31:50;;;;;;;2.05;0.80;;;8.60;99.90;;;;;;4939362;29;20066;-80
2023/12/09 12:34:18;;;;;;;3.60;0.60;;;8.60;99.90;;;;;;4940620;29;20055;-79
2023/12/09 12:36:48;;;;;;;2.17;0.70;;;8.60;99.90;;;;;;4939543;28;20099;-78
2023/12/09 12:39:18;;;;;;;3.10;0.75;;;8.50;99.90;;;;;;4923181;29;20046;-79
2023/12/09 12:41:47;;;;;;;4.93;0.80;;;8.50;99.90;;;;;;4938793;29;20043;-78
2023/12/09 12:44:14;;;;;;;2.45;0.63;;;8.50;99.90;;;;;;4938978;29;20492;-79
2023/12/09 12:46:41;;;;;;;3.45;0.65;;;8.50;99.90;;;;;;4954700;29;20050;-81
2023/12/09 12:49:08;;;;;;;5.75;0.70;;;8.60;99.90;;;;;;4938997;29;20086;-81
2023/12/09 12:51:36;;;;;;;3.30;0.70;;;8.50;99.90;;;;;;4923042;29;20051;-80
2023/12/09 12:54:03;;;;;;;2.88;0.57;;;8.50;99.90;;;;;;4922992;29;20460;-80
2023/12/09 12:56:30;;;;;;;3.00;0.98;;;8.50;99.90;;;;;;4922878;29;20051;-79
2023/12/09 12:58:57;;;;;;;2.20;0.85;;;8.50;99.90;;;;;;4923375;29;20070;-79
2023/12/09 13:01:25;;;;;;;2.60;0.60;;;8.50;99.90;;;;;;4954382;29;20051;-80
2023/12/09 13:03:52;;;;;;;5.53;1.15;;;8.50;99.90;;;;;;4922969;29;20058;-80
2023/12/09 13:06:20;;;;;;;2.20;0.50;;;8.50;99.90;;;;;;4922579;29;20389;-79